createdAt,value
2023-02-25T00:00:08.141Z,93804.88
2023-02-25T00:02:34.688Z,93808.78
2023-02-25T00:05:01.741Z,93797.94
2023-02-25T00:07:35.695Z,93798.03
2023-02-25T00:10:02.371Z,93801.91
2023-02-25T00:12:30.816Z,93794.00
2023-02-25T00:14:57.187Z,93788.75
2023-02-25T00:17:26.776Z,93790.84
2023-02-25T00:19:55.654Z,93775.22
2023-02-25T00:22:22.145Z,93788.69
2023-02-25T00:24:55.751Z,93777.53
2023-02-25T00:27:22.319Z,93786.88
2023-02-25T00:29:49.761Z,93787.53
2023-02-25T00:32:16.356Z,93782.72
2023-02-25T00:34:44.361Z,93774.19
2023-02-25T00:37:10.900Z,93778.84
2023-02-25T00:39:37.714Z,93777.44
2023-02-25T00:42:04.519Z,93776.69
2023-02-25T00:44:33.814Z,93776.72
2023-02-25T00:47:01.402Z,93783.41
2023-02-25T00:49:32.568Z,93790.56
2023-02-25T00:52:02.049Z,93792.47
2023-02-25T00:54:29.947Z,93790.69
2023-02-25T00:56:56.377Z,93779.34
2023-02-25T00:59:31.923Z,93779.34
2023-02-25T01:01:58.529Z,93780.16
2023-02-25T01:04:25.098Z,93775.09
2023-02-25T01:06:52.291Z,93764.38
2023-02-25T01:09:19.175Z,93773.09
2023-02-25T01:11:48.134Z,93767.34
2023-02-25T01:14:14.926Z,93764.28
2023-02-25T01:16:41.633Z,93760.00
2023-02-25T01:19:08.713Z,93750.03
2023-02-25T01:21:35.165Z,93750.66
2023-02-25T01:24:01.644Z,93743.84
2023-02-25T01:26:28.336Z,93746.34
2023-02-25T01:28:56.478Z,93753.69
2023-02-25T01:31:26.073Z,93754.31
2023-02-25T01:33:54.909Z,93759.81
2023-02-25T01:36:21.833Z,93743.63
2023-02-25T01:38:51.202Z,93740.78
2023-02-25T01:41:19.251Z,93744.84
2023-02-25T01:43:45.920Z,93740.19
2023-02-25T01:46:12.810Z,93733.53
2023-02-25T01:48:39.195Z,93733.69
2023-02-25T01:51:05.687Z,93733.47
2023-02-25T01:53:32.258Z,93715.41
2023-02-25T01:55:58.737Z,93725.78
2023-02-25T01:58:25.430Z,93724.56
2023-02-25T02:00:51.967Z,93726.38
2023-02-25T02:03:19.951Z,93713.03
2023-02-25T02:05:47.784Z,93713.66
2023-02-25T02:08:14.305Z,93715.25
2023-02-25T02:10:41.734Z,93715.47
2023-02-25T02:13:09.172Z,93707.50
2023-02-25T02:15:35.543Z,93715.97
2023-02-25T02:18:02.061Z,93709.53
2023-02-25T02:20:28.698Z,93707.25
2023-02-25T02:22:55.480Z,93709.31
2023-02-25T02:25:29.218Z,93698.00
2023-02-25T02:27:58.895Z,93702.81
2023-02-25T02:30:25.578Z,93707.03
2023-02-25T02:32:52.414Z,93712.72
2023-02-25T02:35:18.891Z,93712.56
2023-02-25T02:37:45.596Z,93720.06
2023-02-25T02:40:12.409Z,93713.81
2023-02-25T02:42:41.224Z,93714.94
2023-02-25T02:45:07.760Z,93722.84
2023-02-25T02:47:34.378Z,93725.97
2023-02-25T02:50:01.067Z,93729.19
2023-02-25T02:52:27.708Z,93739.50
2023-02-25T02:54:54.489Z,93729.38
2023-02-25T02:57:23.707Z,93734.44
2023-02-25T02:59:50.666Z,93746.63
2023-02-25T03:02:17.038Z,93740.19
2023-02-25T03:04:43.453Z,93744.25
2023-02-25T03:07:10.846Z,93743.06
2023-02-25T03:09:38.863Z,93740.03
2023-02-25T03:12:05.326Z,93738.84
2023-02-25T03:14:32.366Z,93729.13
2023-02-25T03:16:58.867Z,93735.03
2023-02-25T03:19:25.743Z,93738.28
2023-02-25T03:21:52.537Z,93728.50
2023-02-25T03:24:19.038Z,93714.31
2023-02-25T03:26:45.465Z,93709.06
2023-02-25T03:29:13.333Z,93704.81
2023-02-25T03:31:39.947Z,93701.16
2023-02-25T03:34:08.583Z,93703.78
2023-02-25T03:36:34.990Z,93703.31
2023-02-25T03:39:02.888Z,93696.88
2023-02-25T03:41:29.370Z,93694.03
2023-02-25T03:43:56.131Z,93705.59
2023-02-25T03:46:23.169Z,93707.19
2023-02-25T03:48:49.866Z,93720.78
2023-02-25T03:51:16.436Z,93721.81
2023-02-25T03:53:42.932Z,93728.66
2023-02-25T03:56:12.008Z,93730.47
2023-02-25T03:58:38.709Z,93736.72
2023-02-25T04:01:06.944Z,93740.00
2023-02-25T04:03:33.644Z,93738.75
2023-02-25T04:06:00.232Z,93742.19
2023-02-25T04:08:27.028Z,93733.88
2023-02-25T04:10:53.530Z,93728.63
2023-02-25T04:13:20.115Z,93738.94
2023-02-25T04:15:46.675Z,93736.50
2023-02-25T04:18:13.535Z,93737.69
2023-02-25T04:20:47.940Z,93739.34
2023-02-25T04:23:14.387Z,93742.78
2023-02-25T04:25:40.978Z,93747.63
2023-02-25T04:28:09.131Z,93747.38
2023-02-25T04:30:35.656Z,93748.91
2023-02-25T04:33:03.238Z,93746.88
2023-02-25T04:35:29.968Z,93750.88
2023-02-25T04:37:56.459Z,93756.50
2023-02-25T04:40:25.173Z,93753.06
2023-02-25T04:42:51.743Z,93752.28
2023-02-25T04:45:19.676Z,93753.06
2023-02-25T04:47:46.306Z,93754.91
2023-02-25T04:50:12.893Z,93754.41
2023-02-25T04:52:39.397Z,93742.63
2023-02-25T04:55:06.470Z,93747.50
2023-02-25T04:57:32.853Z,93736.97
2023-02-25T05:00:02.988Z,93734.34
2023-02-25T05:02:29.829Z,93744.44
2023-02-25T05:04:56.970Z,93735.09
2023-02-25T05:07:27.366Z,93737.09
2023-02-25T05:09:53.890Z,93738.13
2023-02-25T05:12:21.793Z,93743.75
2023-02-25T05:14:48.772Z,93739.50
2023-02-25T05:17:17.406Z,93745.41
2023-02-25T05:19:44.858Z,93743.75
2023-02-25T05:22:11.299Z,93736.88
2023-02-25T05:24:38.589Z,93736.88
2023-02-25T05:27:05.792Z,93727.72
2023-02-25T05:29:32.258Z,93739.88
2023-02-25T05:31:59.229Z,93732.78
2023-02-25T05:34:25.700Z,93731.97
2023-02-25T05:36:52.518Z,93738.06
2023-02-25T05:39:20.024Z,93731.78
2023-02-25T05:41:46.491Z,93730.59
2023-02-25T05:44:13.066Z,93734.06
2023-02-25T05:46:39.841Z,93729.59
2023-02-25T05:49:06.311Z,93726.78
2023-02-25T05:51:35.281Z,93726.34
2023-02-25T06:56:33.852Z,93742.91
2023-02-25T06:59:01.101Z,93734.38
2023-02-25T07:01:27.887Z,93731.75
2023-02-25T07:09:33.725Z,93734.59
2023-02-25T07:21:22.054Z,93728.84
2023-02-25T07:45:58.890Z,93736.38
2023-02-25T07:57:42.320Z,93736.31
2023-02-25T08:05:09.057Z,93735.53
2023-02-25T08:27:30.508Z,93735.44
2023-02-25T11:34:47.274Z,93655.56
2023-02-25T11:37:13.902Z,93654.44
2023-02-25T11:39:40.327Z,93651.75
2023-02-25T11:42:06.808Z,93639.00
2023-02-25T11:44:33.232Z,93642.47
2023-02-25T11:47:04.138Z,93633.53
2023-02-25T11:49:30.525Z,93631.88
2023-02-25T11:51:56.857Z,93634.50
2023-02-25T11:54:23.471Z,93632.13
2023-02-25T11:56:49.966Z,93627.78
2023-02-25T11:59:17.242Z,93611.50
2023-02-25T12:01:45.780Z,93605.78
2023-02-25T12:04:12.480Z,93597.22
2023-02-25T12:06:39.070Z,93601.16
2023-02-25T12:09:05.573Z,93587.09
2023-02-25T12:11:32.443Z,93583.56
2023-02-25T12:14:01.288Z,93580.00
2023-02-25T12:16:28.126Z,93575.94
2023-02-25T12:18:54.477Z,93571.88
2023-02-25T12:21:21.151Z,93575.72
2023-02-25T12:23:47.745Z,93554.97
2023-02-25T12:26:14.786Z,93562.53
2023-02-25T12:28:41.174Z,93560.31
2023-02-25T12:31:07.648Z,93556.41
2023-02-25T12:33:34.123Z,93556.94
2023-02-25T12:36:02.960Z,93561.38
2023-02-25T12:38:29.645Z,93552.44
2023-02-25T12:40:56.936Z,93557.66
2023-02-25T12:43:23.514Z,93550.53
2023-02-25T12:45:51.886Z,93544.41
2023-02-25T12:48:18.370Z,93550.91
2023-02-25T12:50:44.900Z,93553.78
2023-02-25T12:53:13.133Z,93542.41
2023-02-25T12:55:41.209Z,93532.81
2023-02-25T12:58:07.767Z,93534.13
2023-02-25T13:00:36.309Z,93532.03
2023-02-25T13:03:03.093Z,93524.13
2023-02-25T13:05:29.538Z,93528.09
2023-02-25T13:07:55.926Z,93527.38
2023-02-25T13:10:22.627Z,93535.53
2023-02-25T13:12:51.278Z,93529.47
2023-02-25T13:15:18.296Z,93534.56
2023-02-25T13:17:44.770Z,93537.63
2023-02-25T13:20:12.749Z,93542.28
2023-02-25T13:22:39.247Z,93539.44
2023-02-25T13:25:05.638Z,93547.94
2023-02-25T13:27:31.990Z,93544.66
2023-02-25T13:29:58.329Z,93546.31
2023-02-25T13:32:25.115Z,93551.19
2023-02-25T13:34:51.519Z,93544.66
2023-02-25T13:37:17.932Z,93549.16
2023-02-25T13:39:44.388Z,93544.53
2023-02-25T13:42:10.744Z,93550.00
2023-02-25T13:44:37.114Z,93546.13
2023-02-25T13:47:03.464Z,93555.66
2023-02-25T13:49:29.815Z,93569.69
2023-02-25T13:51:56.645Z,93566.41
2023-02-25T13:54:23.410Z,93574.13
2023-02-25T13:56:49.913Z,93579.28
2023-02-25T13:59:16.251Z,93585.72
2023-02-25T14:01:43.910Z,93588.16
2023-02-25T14:04:10.935Z,93588.91
2023-02-25T14:06:38.349Z,93590.88
2023-02-25T14:09:04.720Z,93600.41
2023-02-25T14:11:31.366Z,93598.28
2023-02-25T14:13:57.748Z,93600.41
2023-02-25T14:16:24.088Z,93597.25
2023-02-25T14:18:50.457Z,93598.50
2023-02-25T14:21:16.995Z,93611.50
2023-02-25T14:23:43.479Z,93625.56
2023-02-25T14:26:10.743Z,93616.09
2023-02-25T14:28:37.112Z,93626.03
2023-02-25T14:31:04.774Z,93635.84
2023-02-25T14:33:32.189Z,93629.19
2023-02-25T14:35:58.560Z,93641.47
2023-02-25T14:38:25.044Z,93634.75
2023-02-25T14:40:51.424Z,93641.97
2023-02-25T14:43:18.022Z,93645.59
2023-02-25T14:45:44.436Z,93643.34
2023-02-25T14:48:11.581Z,93653.75
2023-02-25T20:06:39.418Z,93779.78
2023-02-25T20:09:10.748Z,93792.69
2023-02-25T20:11:44.693Z,93786.66
2023-02-25T20:14:14.330Z,93794.63
2023-02-25T20:16:49.697Z,93788.75
2023-02-25T20:19:17.768Z,93787.97
2023-02-25T20:21:45.113Z,93783.88
2023-02-25T20:24:12.691Z,93780.78
2023-02-25T20:26:45.545Z,93779.44
2023-02-25T20:29:14.487Z,93787.59
2023-02-25T20:31:41.861Z,93786.94
2023-02-25T20:34:08.587Z,93787.97
2023-02-25T20:36:38.256Z,93792.34
2023-02-25T20:39:11.065Z,93793.94
2023-02-25T20:41:38.837Z,93792.44
2023-02-25T20:44:07.277Z,93798.34
2023-02-25T20:46:34.170Z,93802.28
2023-02-25T20:49:03.691Z,93797.75
2023-02-25T20:51:30.252Z,93805.50
2023-02-25T20:54:06.802Z,93808.78
2023-02-25T20:56:33.521Z,93806.50
2023-02-25T20:59:00.055Z,93800.34
2023-02-25T21:01:26.982Z,93805.84
2023-02-25T21:03:55.511Z,93809.63
2023-02-25T21:06:22.893Z,93814.84
2023-02-25T21:08:53.034Z,93815.94
2023-02-25T21:11:20.364Z,93808.78
2023-02-25T21:13:47.802Z,93810.91
2023-02-25T21:16:14.407Z,93816.97
2023-02-25T21:18:43.363Z,93817.63
2023-02-25T21:21:10.867Z,93823.31
2023-02-25T21:23:43.324Z,93823.19
2023-02-25T21:26:10.234Z,93821.53
2023-02-25T21:28:47.892Z,93819.31
2023-02-25T21:34:03.366Z,93830.72
2023-02-25T21:36:36.554Z,93828.28
2023-02-25T21:39:03.763Z,93821.41
2023-02-25T21:41:36.193Z,93816.19
2023-02-25T21:44:12.158Z,93817.69
2023-02-25T21:46:40.116Z,93824.88
2023-02-25T21:49:12.073Z,93817.91
2023-02-25T21:57:49.711Z,93811.78
2023-02-25T22:00:07.386Z,93815.22
2023-02-25T22:05:36.001Z,93812.75
2023-02-25T22:10:50.428Z,93821.69
2023-02-25T22:13:20.499Z,93813.41
2023-02-25T22:15:59.759Z,93818.97
2023-02-25T22:18:33.362Z,93810.41
2023-02-25T22:23:57.242Z,93808.41
2023-02-25T22:26:32.406Z,93805.25
2023-02-25T22:29:07.028Z,93802.03
2023-02-25T22:31:33.656Z,93793.78
2023-02-25T22:34:00.121Z,93793.78
2023-02-25T22:36:27.404Z,93805.00
2023-02-25T22:38:59.563Z,93801.59
2023-02-25T22:41:28.371Z,93804.13
2023-02-25T22:44:03.764Z,93795.84
2023-02-25T22:46:46.338Z,93798.66
2023-02-25T22:49:12.982Z,93792.63
2023-02-25T22:51:39.399Z,93797.06
2023-02-25T22:54:08.785Z,93793.13
2023-02-25T22:56:35.413Z,93793.13
2023-02-25T22:59:02.199Z,93786.63
2023-02-25T23:01:28.957Z,93793.13
2023-02-25T23:03:56.001Z,93785.63
2023-02-25T23:06:34.219Z,93781.34
2023-02-25T23:09:08.733Z,93783.41
2023-02-25T23:11:35.620Z,93782.66
2023-02-25T23:14:05.531Z,93778.91
2023-02-25T23:16:32.859Z,93778.19
2023-02-25T23:18:59.511Z,93782.22
2023-02-25T23:21:26.377Z,93787.16
2023-02-25T23:23:57.440Z,93780.00
2023-02-25T23:26:25.029Z,93785.25
2023-02-25T23:29:05.612Z,93778.03
2023-02-25T23:31:47.064Z,93780.81
2023-02-25T23:37:04.629Z,93776.44
2023-02-25T23:40:02.244Z,93782.81
2023-02-25T23:48:07.684Z,93784.78
2023-02-25T23:50:34.734Z,93782.88
2023-02-25T23:53:11.938Z,93779.97
2023-02-25T23:58:32.976Z,93777.75
